createdAt,value
2022-11-24T00:00:02.151Z,29.35
2022-11-24T00:00:15.702Z,29.40
2022-11-24T00:00:36.581Z,29.33
2022-11-24T00:01:12.559Z,29.45
2022-11-24T00:01:27.040Z,28.92
2022-11-24T00:01:39.824Z,28.95
2022-11-24T00:01:52.695Z,29.63
2022-11-24T00:02:06.703Z,29.67
2022-11-24T00:02:19.649Z,29.02
2022-11-24T00:02:32.652Z,29.63
2022-11-24T00:02:45.628Z,29.63
2022-11-24T00:02:58.477Z,29.33
2022-11-24T00:03:11.513Z,29.63
2022-11-24T00:03:24.608Z,30.25
2022-11-24T00:03:39.197Z,30.38
2022-11-24T00:03:56.607Z,30.65
2022-11-24T00:04:12.123Z,30.08
2022-11-24T00:04:24.992Z,29.25
2022-11-24T00:04:37.785Z,29.63
2022-11-24T00:04:50.631Z,30.30
2022-11-24T00:05:04.495Z,31.27
2022-11-24T00:05:17.642Z,31.15
2022-11-24T00:05:30.362Z,31.40
2022-11-24T00:05:43.176Z,30.92
2022-11-24T00:05:55.928Z,30.92
2022-11-24T00:06:11.111Z,31.02
2022-11-24T00:06:25.314Z,30.70
2022-11-24T00:06:38.359Z,30.92
2022-11-24T00:06:51.114Z,31.10
2022-11-24T00:07:03.858Z,30.50
2022-11-24T00:07:16.705Z,30.35
2022-11-24T00:07:29.618Z,30.27
2022-11-24T00:07:42.721Z,30.75
2022-11-24T00:07:55.609Z,31.38
2022-11-24T00:08:09.234Z,31.55
2022-11-24T00:08:23.708Z,30.95
2022-11-24T00:08:37.471Z,31.40
2022-11-24T00:08:50.761Z,31.13
2022-11-24T00:09:05.153Z,31.20
2022-11-24T00:09:18.183Z,31.05
2022-11-24T00:09:30.938Z,30.45
2022-11-24T00:09:44.785Z,30.92
2022-11-24T00:09:57.613Z,32.03
2022-11-24T00:10:10.672Z,31.88
2022-11-24T00:10:23.582Z,31.33
2022-11-24T00:10:37.813Z,31.48
2022-11-24T00:10:50.528Z,31.70
2022-11-24T00:11:05.564Z,30.95
2022-11-24T00:11:22.240Z,30.85
2022-11-24T00:11:36.802Z,30.74
2022-11-24T00:11:49.600Z,29.63
2022-11-24T00:12:03.142Z,29.70
2022-11-24T00:12:15.909Z,30.48
2022-11-24T00:12:28.746Z,30.10
2022-11-24T00:12:41.668Z,29.90
2022-11-24T00:12:54.490Z,30.33
2022-11-24T00:13:08.523Z,30.30
2022-11-24T00:13:21.366Z,30.48
2022-11-24T00:13:34.841Z,30.15
2022-11-24T00:13:48.055Z,30.67
2022-11-24T00:14:02.071Z,30.58
2022-11-24T00:14:14.899Z,29.95
2022-11-24T00:14:28.956Z,29.45
2022-11-24T00:14:41.857Z,29.55
2022-11-24T00:14:54.585Z,29.77
2022-11-24T00:15:08.107Z,30.00
2022-11-24T00:15:21.862Z,29.95
2022-11-24T00:15:34.599Z,30.23
2022-11-24T00:15:47.405Z,30.70
2022-11-24T00:16:12.059Z,30.83
2022-11-24T00:16:27.847Z,29.85
2022-11-24T00:16:40.888Z,28.95
2022-11-24T00:16:54.104Z,29.52
2022-11-24T00:17:07.225Z,29.70
2022-11-24T00:17:20.045Z,29.60
2022-11-24T00:17:33.150Z,30.05
2022-11-24T00:17:45.892Z,30.00
2022-11-24T00:17:58.688Z,30.15
2022-11-24T00:18:12.502Z,29.50
2022-11-24T00:18:25.289Z,30.10
2022-11-24T00:18:38.674Z,29.88
2022-11-24T00:18:53.365Z,29.80
2022-11-24T00:19:09.306Z,30.08
2022-11-24T00:19:23.275Z,29.55
2022-11-24T00:19:36.126Z,29.17
2022-11-24T00:19:48.909Z,29.10
2022-11-24T00:20:01.847Z,29.98
2022-11-24T00:20:15.000Z,30.35
2022-11-24T00:20:27.805Z,29.75
2022-11-24T00:20:40.578Z,29.75
2022-11-24T00:20:53.682Z,29.45
2022-11-24T00:21:07.206Z,29.13
2022-11-24T00:21:22.466Z,29.65
2022-11-24T00:21:37.073Z,30.48
2022-11-24T00:21:49.866Z,30.00
2022-11-24T00:22:02.762Z,28.90
2022-11-24T00:22:15.552Z,28.95
2022-11-24T00:22:28.268Z,29.00
2022-11-24T00:22:42.308Z,29.23
2022-11-24T00:22:56.073Z,29.17
2022-11-24T00:23:08.853Z,28.85
2022-11-24T00:23:21.812Z,28.02
2022-11-24T00:23:35.130Z,27.45
2022-11-24T00:23:49.308Z,28.35
2022-11-24T00:24:02.633Z,28.75
2022-11-24T00:24:16.559Z,28.88
2022-11-24T00:24:29.289Z,28.73
2022-11-24T00:24:42.017Z,28.23
2022-11-24T00:24:55.057Z,28.02
2022-11-24T00:25:08.335Z,28.67
2022-11-24T00:25:21.109Z,29.00
2022-11-24T00:25:33.861Z,28.88
2022-11-24T00:25:48.122Z,28.65
2022-11-24T00:26:06.877Z,28.63
2022-11-24T00:26:21.922Z,29.00
2022-11-24T00:26:37.509Z,28.92
2022-11-24T00:26:51.452Z,28.10
2022-11-24T00:27:04.411Z,27.73
2022-11-24T00:27:17.387Z,28.58
2022-11-24T00:27:30.131Z,29.20
2022-11-24T00:27:43.097Z,28.75
2022-11-24T00:27:55.870Z,28.42
2022-11-24T00:28:08.630Z,28.42
2022-11-24T00:28:21.401Z,28.70
2022-11-24T00:28:34.892Z,29.20
2022-11-24T00:28:49.949Z,29.65
2022-11-24T00:29:05.278Z,29.83
2022-11-24T00:29:18.301Z,29.45
2022-11-24T00:29:31.158Z,29.55
2022-11-24T00:29:44.058Z,29.88
2022-11-24T00:29:57.834Z,29.27
2022-11-24T00:30:12.494Z,29.80
2022-11-24T00:30:25.706Z,29.45
2022-11-24T00:30:38.624Z,28.48
2022-11-24T00:30:51.492Z,28.38
2022-11-24T00:31:08.082Z,29.08
2022-11-24T00:31:23.793Z,29.42
2022-11-24T00:31:38.127Z,28.77
2022-11-24T00:31:51.993Z,28.30
2022-11-24T00:32:06.675Z,29.20
2022-11-24T00:32:19.467Z,29.38
2022-11-24T00:32:32.233Z,28.83
2022-11-24T00:32:44.987Z,28.45
2022-11-24T00:32:57.787Z,27.95
2022-11-24T00:33:10.618Z,28.08
2022-11-24T00:33:23.361Z,28.02
2022-11-24T00:33:37.080Z,28.25
2022-11-24T00:33:52.366Z,28.13
2022-11-24T00:34:07.220Z,27.27
2022-11-24T00:34:20.035Z,27.33
2022-11-24T00:34:33.423Z,27.77
2022-11-24T00:34:47.445Z,27.58
2022-11-24T00:35:00.169Z,27.73
2022-11-24T00:35:12.976Z,27.67
2022-11-24T00:35:26.743Z,28.10
2022-11-24T00:35:39.585Z,28.42
2022-11-24T00:35:55.750Z,28.30
2022-11-24T00:36:08.849Z,27.90
2022-11-24T00:36:23.696Z,28.15
2022-11-24T00:36:38.291Z,28.02
2022-11-24T00:36:51.030Z,28.23
2022-11-24T00:37:03.851Z,28.80
2022-11-24T00:37:16.562Z,28.65
2022-11-24T00:37:29.403Z,28.27
2022-11-24T00:37:42.246Z,28.63
2022-11-24T00:37:56.246Z,28.63
2022-11-24T00:38:10.038Z,29.25
2022-11-24T00:38:22.819Z,28.98
2022-11-24T00:38:35.635Z,28.20
2022-11-24T00:38:48.838Z,28.90
2022-11-24T00:39:03.669Z,30.00
2022-11-24T00:39:17.364Z,30.92
2022-11-24T00:39:30.390Z,30.55
2022-11-24T00:39:44.122Z,30.50
2022-11-24T00:39:56.911Z,30.45
2022-11-24T00:40:10.207Z,30.23
2022-11-24T00:40:23.041Z,29.63
2022-11-24T00:40:35.962Z,28.92
2022-11-24T00:40:50.195Z,29.13
2022-11-24T00:41:02.959Z,29.80
2022-11-24T00:41:15.751Z,29.70
2022-11-24T00:41:30.645Z,29.67
2022-11-24T00:41:44.007Z,29.90
2022-11-24T00:41:56.837Z,29.90
2022-11-24T00:42:09.565Z,29.48
2022-11-24T00:42:22.257Z,29.35
2022-11-24T00:42:34.966Z,29.73
2022-11-24T00:42:48.157Z,29.88
2022-11-24T00:43:00.900Z,30.80
2022-11-24T00:43:13.644Z,31.10
2022-11-24T00:43:27.437Z,30.33
2022-11-24T00:43:40.348Z,30.17
2022-11-24T00:43:53.700Z,31.20
2022-11-24T00:44:07.001Z,32.03
2022-11-24T00:44:19.767Z,31.73
2022-11-24T00:44:32.592Z,31.52
2022-11-24T00:44:46.482Z,31.50
2022-11-24T00:44:59.263Z,31.48
2022-11-24T00:45:14.137Z,30.98
2022-11-24T00:45:27.170Z,30.33
2022-11-24T00:45:40.006Z,29.95
2022-11-24T00:45:53.039Z,29.98
2022-11-24T00:46:06.414Z,30.80
2022-11-24T00:46:21.105Z,31.27
2022-11-24T00:46:34.833Z,30.77
2022-11-24T00:46:47.870Z,30.55
2022-11-24T00:47:00.891Z,30.52
2022-11-24T00:47:14.027Z,30.88
2022-11-24T00:47:28.867Z,30.78
2022-11-24T00:47:41.558Z,30.25
2022-11-24T00:47:55.307Z,30.35
2022-11-24T00:48:08.126Z,30.27
2022-11-24T00:48:21.074Z,29.95
2022-11-24T00:48:34.152Z,29.63
2022-11-24T00:48:46.953Z,30.60
2022-11-24T00:49:00.526Z,30.88
2022-11-24T00:49:14.260Z,30.05
2022-11-24T00:49:27.411Z,29.20
2022-11-24T00:49:40.091Z,29.35
2022-11-24T00:49:52.854Z,29.58
2022-11-24T00:50:06.536Z,29.95
2022-11-24T00:50:20.190Z,30.08
2022-11-24T00:50:32.959Z,29.73
2022-11-24T00:50:45.718Z,29.10
2022-11-24T00:51:00.951Z,29.08
2022-11-24T00:51:15.896Z,29.65
2022-11-24T00:51:30.494Z,28.95
2022-11-24T00:51:43.296Z,29.40
2022-11-24T00:51:56.013Z,29.77
2022-11-24T00:52:09.784Z,29.17
2022-11-24T00:52:22.565Z,28.67
2022-11-24T00:52:35.270Z,29.08
2022-11-24T00:52:48.341Z,29.17
2022-11-24T00:53:01.144Z,28.88
2022-11-24T00:53:13.827Z,29.23
2022-11-24T00:53:26.972Z,29.25
2022-11-24T00:53:40.063Z,29.27
2022-11-24T00:53:54.408Z,29.73
2022-11-24T00:54:07.178Z,29.88
2022-11-24T00:54:20.042Z,30.04
2022-11-24T00:54:32.977Z,30.00
2022-11-24T00:54:45.796Z,29.75
2022-11-24T00:54:58.581Z,29.83
2022-11-24T00:55:11.308Z,29.42
2022-11-24T00:55:25.112Z,29.45
2022-11-24T00:55:37.864Z,29.63
2022-11-24T00:55:52.948Z,29.42
2022-11-24T00:56:06.579Z,29.45
2022-11-24T00:56:19.506Z,29.35
2022-11-24T00:56:32.509Z,29.33
2022-11-24T00:56:46.276Z,30.20
2022-11-24T00:56:59.055Z,30.42
2022-11-24T00:57:12.121Z,29.98
2022-11-24T00:57:24.997Z,29.90
2022-11-24T00:57:37.783Z,30.10
2022-11-24T00:57:50.648Z,30.50
2022-11-24T00:58:03.434Z,30.67
2022-11-24T00:58:16.216Z,29.85
2022-11-24T00:58:29.940Z,28.98
2022-11-24T00:58:42.912Z,30.13
2022-11-24T00:58:56.771Z,31.10
2022-11-24T00:59:09.942Z,31.25
2022-11-24T00:59:22.676Z,32.20
2022-11-24T00:59:36.429Z,32.55
2022-11-24T00:59:49.150Z,32.08
2022-11-24T01:00:01.948Z,31.98
2022-11-24T01:00:15.712Z,32.45
2022-11-24T01:00:28.425Z,33.03
2022-11-24T01:00:41.184Z,33.13
2022-11-24T01:00:53.925Z,32.88
2022-11-24T01:01:10.602Z,34.08
2022-11-24T01:01:25.346Z,34.55
2022-11-24T01:01:39.104Z,34.22
2022-11-24T01:01:52.186Z,33.08
2022-11-24T01:02:04.994Z,32.33
2022-11-24T01:02:17.849Z,32.78
2022-11-24T01:02:30.682Z,33.65
2022-11-24T01:02:43.638Z,34.25
2022-11-24T01:02:57.556Z,34.80
2022-11-24T01:03:10.751Z,35.22
2022-11-24T01:03:23.441Z,34.95
2022-11-24T01:03:36.337Z,35.70
2022-11-24T01:03:49.282Z,36.63
2022-11-24T01:04:02.301Z,37.25
2022-11-24T01:04:16.267Z,37.05
2022-11-24T01:04:29.031Z,37.22
2022-11-24T01:04:41.822Z,36.92
2022-11-24T01:04:54.869Z,36.30
2022-11-24T01:05:08.464Z,35.40
2022-11-24T01:05:21.269Z,35.10
2022-11-24T01:05:36.668Z,35.70
2022-11-24T01:05:50.555Z,36.03
2022-11-24T01:06:04.882Z,34.75
2022-11-24T01:06:19.564Z,32.97
2022-11-24T01:06:32.896Z,33.25
2022-11-24T01:06:45.998Z,34.50
2022-11-24T01:06:59.777Z,34.45
2022-11-24T01:07:12.709Z,32.80
2022-11-24T01:07:25.543Z,32.13
2022-11-24T01:07:38.499Z,32.67
2022-11-24T01:07:51.256Z,33.80
2022-11-24T01:08:04.185Z,33.42
2022-11-24T01:08:17.369Z,32.72
2022-11-24T01:08:30.166Z,32.72
2022-11-24T01:08:44.602Z,32.75
2022-11-24T01:08:58.076Z,32.65
2022-11-24T01:09:11.503Z,32.92
2022-11-24T01:09:24.323Z,33.38
2022-11-24T01:09:37.901Z,32.45
2022-11-24T01:09:50.710Z,32.28
2022-11-24T01:10:05.182Z,32.95
2022-11-24T01:10:18.128Z,32.45
2022-11-24T01:10:31.995Z,32.38
2022-11-24T01:10:44.767Z,32.17
2022-11-24T01:11:09.015Z,32.03
2022-11-24T01:11:24.393Z,33.13
2022-11-24T01:11:52.073Z,32.95
2022-11-24T01:12:06.011Z,33.22
2022-11-24T01:12:18.784Z,32.33
2022-11-24T01:12:32.425Z,31.30
2022-11-24T01:12:45.130Z,31.85
2022-11-24T01:12:58.123Z,32.13
2022-11-24T01:13:12.703Z,32.00
2022-11-24T01:13:25.446Z,32.10
2022-11-24T01:13:38.838Z,32.45
2022-11-24T01:13:54.772Z,32.67
2022-11-24T01:14:07.552Z,31.92
2022-11-24T01:14:21.448Z,31.27
2022-11-24T01:14:34.412Z,30.88
2022-11-24T01:14:47.274Z,31.52
2022-11-24T01:15:00.035Z,31.85
2022-11-24T01:15:12.777Z,31.92
2022-11-24T01:15:26.640Z,30.95
2022-11-24T01:15:40.480Z,31.48
2022-11-24T01:15:53.383Z,30.95
2022-11-24T01:16:06.644Z,30.17
2022-11-24T01:16:22.569Z,31.50
2022-11-24T01:16:35.793Z,32.55
2022-11-24T01:16:50.014Z,33.15
2022-11-24T01:17:02.717Z,32.78
2022-11-24T01:17:15.507Z,31.67
2022-11-24T01:17:28.228Z,30.58
2022-11-24T01:17:41.007Z,31.05
2022-11-24T01:17:53.964Z,30.92
2022-11-24T01:18:08.297Z,31.48
2022-11-24T01:18:21.052Z,32.38
2022-11-24T01:18:34.088Z,31.80
2022-11-24T01:18:47.282Z,31.33
2022-11-24T01:19:00.755Z,31.50
2022-11-24T01:19:13.537Z,31.35
2022-11-24T01:19:26.336Z,31.52
2022-11-24T01:19:40.078Z,31.75
2022-11-24T01:19:53.164Z,30.70
2022-11-24T01:20:07.020Z,30.55
2022-11-24T01:20:19.776Z,31.33
2022-11-24T01:20:32.547Z,32.08
2022-11-24T01:20:45.358Z,32.20
2022-11-24T01:20:58.164Z,32.88
2022-11-24T01:21:11.003Z,33.75
2022-11-24T01:21:25.092Z,33.33
2022-11-24T01:21:37.881Z,33.40
2022-11-24T01:21:50.702Z,34.03
2022-11-24T01:22:03.456Z,33.70
2022-11-24T01:22:16.478Z,33.53
2022-11-24T01:22:29.661Z,33.65
2022-11-24T01:22:42.472Z,33.95
2022-11-24T01:22:56.176Z,33.50
2022-11-24T01:23:08.865Z,33.70
2022-11-24T01:23:21.612Z,33.63
2022-11-24T01:23:34.481Z,34.30
2022-11-24T01:23:47.225Z,34.40
2022-11-24T01:23:59.991Z,33.60
2022-11-24T01:24:14.247Z,33.50
2022-11-24T01:24:27.310Z,33.65
2022-11-24T01:24:40.107Z,33.13
2022-11-24T01:24:52.883Z,32.70
2022-11-24T01:25:06.427Z,33.33
2022-11-24T01:25:19.284Z,34.20
2022-11-24T01:25:32.078Z,33.70
2022-11-24T01:25:45.842Z,33.85
2022-11-24T01:25:58.620Z,34.35
2022-11-24T01:26:14.556Z,34.30
2022-11-24T01:26:27.269Z,33.50
2022-11-24T01:26:40.329Z,33.65
2022-11-24T01:26:53.023Z,34.55
2022-11-24T01:27:05.838Z,34.95
2022-11-24T01:27:19.562Z,34.53
2022-11-24T01:27:32.417Z,33.60
2022-11-24T01:27:45.252Z,34.05
2022-11-24T01:27:57.961Z,34.50
2022-11-24T01:28:10.746Z,35.42
2022-11-24T01:28:23.473Z,35.67
2022-11-24T01:28:37.029Z,35.70
2022-11-24T01:28:55.148Z,35.22
2022-11-24T01:29:08.497Z,35.55
2022-11-24T01:29:21.282Z,36.35
2022-11-24T01:29:34.166Z,36.63
2022-11-24T01:29:46.988Z,36.10
2022-11-24T01:29:59.725Z,35.28
2022-11-24T01:30:12.631Z,34.95
2022-11-24T01:30:25.400Z,35.50
2022-11-24T01:30:38.196Z,35.22
2022-11-24T01:30:58.687Z,35.65
2022-11-24T01:31:12.157Z,35.83
2022-11-24T01:31:26.064Z,35.70
2022-11-24T01:31:39.003Z,35.80
2022-11-24T01:31:52.908Z,35.15
2022-11-24T01:32:05.725Z,34.85
2022-11-24T01:32:18.588Z,35.28
2022-11-24T01:32:33.314Z,35.60
2022-11-24T01:32:46.054Z,36.17
2022-11-24T01:32:58.760Z,36.42
2022-11-24T01:33:11.477Z,36.08
2022-11-24T01:33:24.558Z,35.83
2022-11-24T01:33:38.771Z,35.53
2022-11-24T01:33:51.769Z,35.65
2022-11-24T01:34:04.531Z,35.45
2022-11-24T01:34:17.285Z,35.60
2022-11-24T01:34:30.276Z,35.67
2022-11-24T01:34:43.342Z,36.25
2022-11-24T01:34:57.467Z,36.63
2022-11-24T01:35:10.539Z,36.35
2022-11-24T01:35:23.321Z,36.03
2022-11-24T01:35:36.886Z,35.75
2022-11-24T01:35:49.630Z,34.33
2022-11-24T01:36:02.758Z,34.67
2022-11-24T01:36:16.652Z,36.00
2022-11-24T01:36:29.527Z,36.10
2022-11-24T01:36:42.292Z,36.00
2022-11-24T01:36:54.997Z,36.30
2022-11-24T01:37:07.742Z,36.60
2022-11-24T01:37:20.460Z,36.28
2022-11-24T01:37:33.445Z,36.03
2022-11-24T01:37:47.444Z,35.40
2022-11-24T01:38:00.328Z,34.60
2022-11-24T01:38:13.010Z,34.60
2022-11-24T01:38:26.324Z,35.47
2022-11-24T01:38:39.019Z,34.92
2022-11-24T01:38:51.999Z,34.83
2022-11-24T01:39:04.851Z,34.40
2022-11-24T01:39:18.608Z,34.72
2022-11-24T01:39:31.348Z,35.17
2022-11-24T01:39:44.066Z,35.22
2022-11-24T01:39:56.944Z,35.20
2022-11-24T01:40:11.218Z,35.50
2022-11-24T01:40:24.019Z,35.13
2022-11-24T01:40:36.743Z,34.55
2022-11-24T01:40:50.843Z,35.17
2022-11-24T01:41:06.412Z,35.20
2022-11-24T01:41:22.281Z,34.55
2022-11-24T01:41:36.025Z,34.78
2022-11-24T01:41:48.814Z,35.50
2022-11-24T01:42:01.943Z,35.75
2022-11-24T01:42:15.168Z,36.08
2022-11-24T01:42:37.749Z,35.72
2022-11-24T01:42:53.504Z,34.38
2022-11-24T01:43:17.290Z,35.05
2022-11-24T01:43:30.107Z,35.08
2022-11-24T01:43:44.666Z,35.25
2022-11-24T01:43:57.874Z,35.22
2022-11-24T01:44:22.559Z,34.30
2022-11-24T01:44:36.639Z,34.42
2022-11-24T01:45:12.393Z,34.70
2022-11-24T01:45:37.104Z,34.22
2022-11-24T01:45:51.132Z,33.78
2022-11-24T01:46:15.004Z,33.58
2022-11-24T01:46:32.604Z,34.38
2022-11-24T01:46:48.354Z,33.88
2022-11-24T01:47:06.196Z,34.05
2022-11-24T01:47:34.280Z,34.60
2022-11-24T01:47:48.101Z,34.17
2022-11-24T01:48:05.963Z,34.60
2022-11-24T01:48:27.274Z,34.22
2022-11-24T01:48:44.871Z,33.90
2022-11-24T01:49:04.909Z,33.88
2022-11-24T01:49:22.049Z,33.40
2022-11-24T01:49:39.840Z,33.83
2022-11-24T01:49:55.207Z,34.38
2022-11-24T01:50:16.714Z,33.63
2022-11-24T01:50:29.507Z,32.88
2022-11-24T01:50:44.609Z,33.75
2022-11-24T01:51:06.762Z,34.60
2022-11-24T01:51:24.571Z,34.55
2022-11-24T01:51:42.330Z,34.47
2022-11-24T01:52:00.804Z,34.17
2022-11-24T01:52:17.225Z,33.97
2022-11-24T01:52:35.224Z,33.88
2022-11-24T01:52:51.692Z,34.05
2022-11-24T01:53:05.215Z,34.13
2022-11-24T01:53:18.034Z,34.17
2022-11-24T01:53:32.108Z,34.45
2022-11-24T01:53:49.456Z,34.35
2022-11-24T01:54:08.073Z,34.42
2022-11-24T01:54:25.371Z,34.20
2022-11-24T01:54:41.658Z,34.00
2022-11-24T01:54:58.244Z,34.92
2022-11-24T01:55:18.389Z,35.47
2022-11-24T01:55:35.075Z,34.53
2022-11-24T01:55:48.272Z,34.60
2022-11-24T01:56:01.020Z,34.53
2022-11-24T01:56:14.460Z,33.97
2022-11-24T01:56:31.365Z,33.60
2022-11-24T01:56:49.005Z,33.97
2022-11-24T01:57:05.988Z,35.05
2022-11-24T01:57:25.123Z,34.83
2022-11-24T01:57:42.621Z,34.55
2022-11-24T01:58:00.060Z,34.92
2022-11-24T01:58:16.914Z,34.58
2022-11-24T01:58:34.143Z,34.88
2022-11-24T01:58:49.028Z,34.65
2022-11-24T01:59:04.079Z,34.80
2022-11-24T01:59:19.684Z,34.13
2022-11-24T01:59:33.227Z,34.80
2022-11-24T01:59:50.045Z,34.85
2022-11-24T02:00:06.943Z,33.75
2022-11-24T02:00:19.940Z,34.25
2022-11-24T02:00:34.832Z,34.53
2022-11-24T02:00:47.960Z,33.92
2022-11-24T02:01:00.964Z,33.65
2022-11-24T02:01:14.968Z,34.17
2022-11-24T02:01:29.403Z,35.22
2022-11-24T02:01:42.346Z,35.30
2022-11-24T02:01:57.022Z,35.25
2022-11-24T02:02:11.038Z,35.38
2022-11-24T02:02:24.771Z,35.13
2022-11-24T02:02:39.596Z,35.08
2022-11-24T02:02:53.694Z,35.38
2022-11-24T02:03:07.233Z,35.70
2022-11-24T02:03:24.193Z,35.60
2022-11-24T02:03:40.407Z,35.45
2022-11-24T02:03:53.586Z,35.08
2022-11-24T02:04:12.156Z,34.60
2022-11-24T02:04:29.551Z,34.45
2022-11-24T02:04:43.803Z,34.88
2022-11-24T02:04:59.129Z,35.50
2022-11-24T02:05:18.194Z,34.95
2022-11-24T02:05:35.647Z,34.55
2022-11-24T02:05:58.703Z,34.05
2022-11-24T02:06:14.431Z,34.38
2022-11-24T02:06:29.659Z,35.05
2022-11-24T02:06:45.476Z,35.25
2022-11-24T02:07:01.782Z,34.78
2022-11-24T02:07:16.381Z,33.92
2022-11-24T02:07:29.638Z,33.65
2022-11-24T02:07:42.570Z,34.05
2022-11-24T02:07:59.537Z,34.13
2022-11-24T02:08:19.613Z,33.55
2022-11-24T02:08:41.212Z,33.50
2022-11-24T02:08:59.983Z,33.28
2022-11-24T02:09:19.991Z,32.88
2022-11-24T02:09:37.782Z,32.60
2022-11-24T02:09:55.630Z,32.92
2022-11-24T02:10:13.027Z,32.88
2022-11-24T02:10:26.803Z,32.95
2022-11-24T02:10:39.722Z,33.10
2022-11-24T02:10:52.527Z,33.08
2022-11-24T02:11:06.046Z,33.35
2022-11-24T02:11:21.300Z,33.55
2022-11-24T02:11:38.645Z,33.60
2022-11-24T02:11:53.696Z,32.92
2022-11-24T02:12:07.189Z,32.67
2022-11-24T02:12:20.430Z,33.58
2022-11-24T02:12:34.003Z,34.13
2022-11-24T02:12:49.217Z,33.88
2022-11-24T02:13:03.229Z,33.78
2022-11-24T02:13:16.479Z,33.45
2022-11-24T02:13:29.580Z,33.75
2022-11-24T02:13:43.750Z,33.53
2022-11-24T02:13:57.890Z,32.17
2022-11-24T02:14:15.004Z,32.92
2022-11-24T02:14:28.316Z,33.30
2022-11-24T02:14:43.658Z,33.33
2022-11-24T02:14:56.991Z,33.80
2022-11-24T02:15:11.950Z,33.40
2022-11-24T02:15:25.470Z,33.10
2022-11-24T02:15:38.442Z,32.88
2022-11-24T02:15:54.379Z,32.70
2022-11-24T02:16:10.641Z,32.53
2022-11-24T02:16:23.927Z,32.33
2022-11-24T02:16:37.747Z,33.05
2022-11-24T02:16:51.742Z,32.92
2022-11-24T02:17:04.467Z,31.92
2022-11-24T02:17:18.271Z,31.33
2022-11-24T02:17:31.090Z,31.45
2022-11-24T02:17:44.238Z,32.42
2022-11-24T02:17:59.406Z,32.63
2022-11-24T02:18:12.266Z,32.13
2022-11-24T02:18:25.021Z,32.58
2022-11-24T02:18:38.911Z,32.53
2022-11-24T02:18:52.145Z,31.80
2022-11-24T02:19:14.107Z,31.42
2022-11-24T02:19:37.746Z,32.67
2022-11-24T02:19:55.880Z,33.50
2022-11-24T02:20:10.888Z,33.67
2022-11-24T02:20:23.722Z,33.20
2022-11-24T02:20:38.241Z,32.80
2022-11-24T02:20:51.184Z,32.65
2022-11-24T02:21:04.872Z,32.53
2022-11-24T02:21:18.294Z,32.72
2022-11-24T02:21:30.988Z,32.85
2022-11-24T02:21:43.734Z,32.70
2022-11-24T02:21:56.404Z,32.90
2022-11-24T02:22:14.536Z,32.65
2022-11-24T02:22:40.290Z,33.45
2022-11-24T02:23:00.628Z,33.10
2022-11-24T02:23:20.182Z,33.35
2022-11-24T02:23:44.170Z,33.13
2022-11-24T02:24:03.671Z,33.15
2022-11-24T02:24:24.349Z,34.00
2022-11-24T02:24:46.053Z,33.72
2022-11-24T02:25:06.846Z,33.28
2022-11-24T02:25:28.983Z,33.13
2022-11-24T02:25:50.592Z,33.35
2022-11-24T02:26:10.302Z,33.60
2022-11-24T02:26:34.560Z,34.22
2022-11-24T02:26:52.020Z,34.35
2022-11-24T02:27:04.662Z,33.65
2022-11-24T02:27:17.512Z,33.97
2022-11-24T02:27:30.854Z,34.10
2022-11-24T02:27:48.197Z,33.92
2022-11-24T02:28:08.653Z,33.55
2022-11-24T02:28:23.564Z,33.78
2022-11-24T02:28:37.449Z,34.13
2022-11-24T02:28:50.350Z,34.55
2022-11-24T02:29:03.118Z,34.78
2022-11-24T02:29:16.149Z,33.40
2022-11-24T02:29:28.780Z,32.92
2022-11-24T02:29:41.697Z,33.25
2022-11-24T02:29:55.330Z,33.67
2022-11-24T02:30:08.583Z,34.00
2022-11-24T02:30:21.229Z,34.50
2022-11-24T02:30:34.224Z,34.53
2022-11-24T02:30:47.787Z,33.78
2022-11-24T02:31:01.940Z,33.65
2022-11-24T02:31:14.662Z,34.10
2022-11-24T02:31:29.058Z,34.10
2022-11-24T02:31:47.607Z,33.78
2022-11-24T02:32:05.761Z,33.60
2022-11-24T02:32:19.984Z,33.38
2022-11-24T02:32:33.931Z,34.30
2022-11-24T02:32:46.795Z,34.20
2022-11-24T02:33:00.969Z,34.20
2022-11-24T02:33:14.117Z,35.28
2022-11-24T02:33:27.282Z,35.03
2022-11-24T02:33:40.891Z,34.47
2022-11-24T02:33:54.909Z,33.53
2022-11-24T02:34:07.537Z,33.40
2022-11-24T02:34:20.536Z,34.17
2022-11-24T02:34:33.453Z,34.47
2022-11-24T02:34:47.245Z,34.92
2022-11-24T02:35:01.438Z,35.30
2022-11-24T02:35:14.799Z,35.75
2022-11-24T02:35:28.219Z,35.82
2022-11-24T02:35:41.218Z,35.70
2022-11-24T02:35:53.899Z,34.47
2022-11-24T02:36:07.329Z,34.05
2022-11-24T02:36:20.927Z,33.88
2022-11-24T02:36:33.562Z,34.10
2022-11-24T02:36:46.149Z,35.03
2022-11-24T02:36:58.739Z,35.10
2022-11-24T02:37:11.707Z,35.05
2022-11-24T02:37:24.330Z,34.70
2022-11-24T02:37:36.869Z,34.40
2022-11-24T02:37:50.472Z,34.35
2022-11-24T02:38:03.164Z,35.08
2022-11-24T02:38:15.862Z,35.25
2022-11-24T02:38:31.447Z,35.22
2022-11-24T02:38:44.031Z,35.05
2022-11-24T02:38:56.643Z,34.60
2022-11-24T02:39:11.357Z,35.15
2022-11-24T02:39:24.939Z,35.63
2022-11-24T02:39:37.558Z,34.95
2022-11-24T02:39:50.146Z,34.60
2022-11-24T02:40:02.757Z,34.75
2022-11-24T02:40:16.565Z,35.25
2022-11-24T02:40:31.017Z,35.33
2022-11-24T02:40:47.969Z,35.35
2022-11-24T02:41:04.964Z,35.14
2022-11-24T02:41:20.295Z,34.53
2022-11-24T02:41:34.325Z,34.35
2022-11-24T02:41:52.280Z,34.22
2022-11-24T02:42:08.476Z,34.45
2022-11-24T02:42:21.545Z,34.42
2022-11-24T02:42:38.377Z,35.10
2022-11-24T02:42:54.853Z,35.42
2022-11-24T02:43:11.248Z,33.53
2022-11-24T02:43:24.379Z,33.88
2022-11-24T02:43:41.061Z,34.95
2022-11-24T02:43:57.496Z,35.03
2022-11-24T02:44:10.837Z,35.22
2022-11-24T02:44:27.391Z,34.72
2022-11-24T02:44:43.857Z,34.00
2022-11-24T02:45:00.515Z,34.15
2022-11-24T02:45:15.311Z,34.92
2022-11-24T02:45:29.707Z,35.20
2022-11-24T02:45:42.344Z,35.13
2022-11-24T02:45:55.010Z,34.97
2022-11-24T02:46:08.347Z,35.17
2022-11-24T02:46:21.482Z,34.95
2022-11-24T02:46:34.198Z,34.50
2022-11-24T02:46:47.813Z,33.83
2022-11-24T02:47:05.440Z,34.10
2022-11-24T02:47:18.061Z,35.13
2022-11-24T02:47:30.687Z,35.53
2022-11-24T02:47:43.285Z,35.33
2022-11-24T02:47:55.872Z,34.92
2022-11-24T02:48:08.663Z,34.38
2022-11-24T02:48:22.228Z,34.35
2022-11-24T02:48:34.861Z,34.28
2022-11-24T02:48:47.619Z,34.90
2022-11-24T02:49:00.243Z,35.15
2022-11-24T02:49:12.974Z,35.05
2022-11-24T02:49:25.561Z,35.03
2022-11-24T02:49:38.714Z,35.28
2022-11-24T02:49:51.304Z,34.63
2022-11-24T02:50:05.317Z,34.63
2022-11-24T02:50:18.001Z,34.47
2022-11-24T02:50:30.569Z,34.45
2022-11-24T02:50:43.582Z,34.28
2022-11-24T02:50:56.491Z,34.85
2022-11-24T02:51:09.435Z,35.40
2022-11-24T02:51:23.100Z,35.22
2022-11-24T02:51:35.687Z,34.80
2022-11-24T02:51:48.233Z,35.25
2022-11-24T02:52:01.016Z,35.33
2022-11-24T02:52:13.725Z,35.63
2022-11-24T02:52:26.395Z,34.92
2022-11-24T02:52:39.023Z,34.63
2022-11-24T02:52:52.640Z,34.80
2022-11-24T02:53:05.170Z,34.85
2022-11-24T02:53:17.858Z,35.20
2022-11-24T02:53:30.432Z,34.83
2022-11-24T02:53:43.040Z,34.30
2022-11-24T02:53:55.619Z,33.80
2022-11-24T02:54:09.202Z,33.88
2022-11-24T02:54:21.887Z,34.28
2022-11-24T02:54:35.065Z,34.45
2022-11-24T02:54:47.825Z,34.95
2022-11-24T02:55:00.449Z,35.58
2022-11-24T02:55:13.321Z,34.85
2022-11-24T02:55:26.291Z,34.60
2022-11-24T02:55:39.851Z,34.63
2022-11-24T02:55:53.153Z,34.20
2022-11-24T02:56:06.299Z,33.90
2022-11-24T02:56:18.899Z,34.00
2022-11-24T02:56:31.479Z,34.47
2022-11-24T02:56:45.445Z,34.33
2022-11-24T02:56:58.132Z,33.78
2022-11-24T02:57:12.150Z,33.63
2022-11-24T02:57:24.732Z,34.65
2022-11-24T02:57:37.332Z,35.15
2022-11-24T02:57:49.882Z,35.30
2022-11-24T02:58:02.641Z,35.22
2022-11-24T02:58:15.851Z,35.00
2022-11-24T02:58:29.489Z,34.70
2022-11-24T02:58:42.083Z,35.34
2022-11-24T02:58:54.691Z,35.92
2022-11-24T02:59:07.281Z,35.63
2022-11-24T02:59:20.169Z,35.00
2022-11-24T02:59:32.697Z,35.17
2022-11-24T02:59:46.635Z,35.65
2022-11-24T03:00:00.303Z,35.38
2022-11-24T03:00:13.691Z,34.67
2022-11-24T03:00:26.280Z,34.70
2022-11-24T03:00:38.913Z,35.38
2022-11-24T03:00:54.473Z,35.13
2022-11-24T03:01:07.257Z,35.67
2022-11-24T03:01:19.966Z,35.78
2022-11-24T03:01:33.604Z,35.33
2022-11-24T03:01:46.362Z,34.75
2022-11-24T03:01:59.170Z,35.08
2022-11-24T03:02:11.820Z,35.20
2022-11-24T03:02:24.487Z,35.15